Time;durP1;ratioP1;P1;durP2;ratioP2;P2;SDS_P1;SDS_P2;PMS_P1;PMS_P2;Temp;Humidity;BMP_temperature;BMP_pressure;BME280_temperature;BME280_humidity;BME280_pressure;Samples;Min_cycle;Max_cycle;Signal;HPM_P1;HPM_P2
2022/06/12 00:01:15;;;;;;;8.05;1.92;;;11.10;99.90;;;;;;5033507;28;20030;-83
2022/06/12 00:03:41;;;;;;;6.68;2.88;;;11.10;99.90;;;;;;5033653;28;20605;-83
2022/06/12 00:06:08;;;;;;;4.20;2.20;;;11.00;99.90;;;;;;5033804;28;20082;-82
2022/06/12 00:08:37;;;;;;;10.65;3.15;;;11.00;99.90;;;;;;5034203;28;20087;-83
2022/06/12 00:11:06;;;;;;;5.90;2.20;;;11.00;99.90;;;;;;5041065;28;20020;-83
2022/06/12 00:13:36;;;;;;;9.88;2.35;;;11.00;99.90;;;;;;5034376;28;20032;-83
2022/06/12 00:16:04;;;;;;;8.80;3.08;;;11.00;99.90;;;;;;5054230;23;20004;-86
2022/06/12 00:18:30;;;;;;;9.38;2.70;;;11.00;99.90;;;;;;5002622;28;20026;-86
2022/06/12 00:21:12;;;;;;;7.07;2.80;;;10.90;99.90;;;;;;4992919;28;20076;-85
2022/06/12 00:23:49;;;;;;;6.35;2.28;;;11.00;99.90;;;;;;4992258;28;20029;-87
2022/06/12 00:26:20;;;;;;;4.97;2.30;;;10.90;99.90;;;;;;4990076;28;20026;-86
2022/06/12 00:28:46;;;;;;;4.97;2.90;;;10.80;99.90;;;;;;4991642;28;20426;-86
2022/06/12 00:31:11;;;;;;;5.78;2.72;;;10.80;99.90;;;;;;4992760;28;20026;-86
2022/06/12 00:33:38;;;;;;;5.80;2.22;;;10.70;99.90;;;;;;4993320;28;20069;-86
2022/06/12 00:36:04;;;;;;;10.10;2.45;;;10.70;99.90;;;;;;4986330;28;20030;-86
2022/06/12 00:38:30;;;;;;;8.02;2.88;;;10.60;99.90;;;;;;4986283;28;20707;-87
2022/06/12 00:40:56;;;;;;;6.80;2.60;;;10.60;99.90;;;;;;4986469;28;20034;-86
2022/06/12 00:43:26;;;;;;;8.05;2.67;;;10.50;99.90;;;;;;4986186;28;20026;-87
2022/06/12 00:45:59;;;;;;;5.20;2.25;;;10.50;99.90;;;;;;4993601;28;20015;-87
2022/06/12 00:48:31;;;;;;;5.07;2.20;;;10.40;99.90;;;;;;4984638;28;20594;-86
2022/06/12 00:51:13;;;;;;;4.32;2.10;;;10.30;99.90;;;;;;4992594;28;20022;-87
2022/06/12 00:53:58;;;;;;;5.22;2.35;;;10.30;99.90;;;;;;4986356;28;20044;-87
2022/06/12 00:56:36;;;;;;;7.43;2.60;;;10.40;99.90;;;;;;4993074;28;20027;-86
2022/06/12 00:59:10;;;;;;;9.13;2.42;;;10.50;99.90;;;;;;4986051;28;20024;-87
2022/06/12 01:01:43;;;;;;;4.97;2.00;;;10.50;99.90;;;;;;4985357;28;20022;-87
2022/06/12 01:06:57;;;;;;;8.27;2.75;;;10.40;99.90;;;;;;4992127;28;20041;-86
2022/06/12 01:09:28;;;;;;;9.77;2.72;;;10.40;99.90;;;;;;4992698;28;20041;-86
2022/06/12 01:11:55;;;;;;;6.47;2.30;;;10.40;99.90;;;;;;4992562;28;20542;-86
2022/06/12 01:14:31;;;;;;;4.75;2.75;;;10.40;99.90;;;;;;4991286;28;20034;-86
2022/06/12 01:16:57;;;;;;;6.13;2.55;;;10.50;99.90;;;;;;5025672;23;20455;-83
2022/06/12 01:19:47;;;;;;;3.97;2.13;;;10.50;99.90;;;;;;5012627;28;20030;-83
2022/06/12 01:22:33;;;;;;;7.18;2.00;;;10.40;99.90;;;;;;5007491;28;20040;-83
2022/06/12 01:25:33;;;;;;;4.47;1.85;;;10.30;99.90;;;;;;5007809;28;20097;-83
2022/06/12 01:28:33;;;;;;;6.13;2.15;;;10.20;99.90;;;;;;4993847;28;20035;-83
2022/06/12 01:30:59;;;;;;;5.40;2.13;;;10.20;99.90;;;;;;5012383;28;20025;-83
2022/06/12 01:33:32;;;;;;;3.67;1.95;;;10.20;99.90;;;;;;5012691;28;20022;-83
2022/06/12 01:36:25;;;;;;;5.55;1.95;;;10.20;99.90;;;;;;5012857;28;20384;-83
2022/06/12 01:39:18;;;;;;;7.53;1.90;;;10.10;99.90;;;;;;5012620;28;20014;-83
2022/06/12 01:41:59;;;;;;;7.50;2.28;;;10.00;99.90;;;;;;4969241;28;20034;-83
2022/06/12 01:44:47;;;;;;;10.20;2.45;;;9.90;99.90;;;;;;5012600;28;20025;-82
2022/06/12 01:47:46;;;;;;;5.65;1.92;;;9.90;99.90;;;;;;5011935;28;20037;-83
2022/06/12 01:50:23;;;;;;;5.00;2.30;;;9.80;99.90;;;;;;5005591;28;20028;-83
2022/06/12 01:52:58;;;;;;;3.78;1.70;;;9.70;99.90;;;;;;5012430;28;20021;-83
2022/06/12 01:55:36;;;;;;;6.70;2.47;;;9.60;99.90;;;;;;5012118;28;20022;-83
2022/06/12 01:58:15;;;;;;;6.50;2.25;;;9.50;99.90;;;;;;5012327;28;20037;-83
2022/06/12 02:01:08;;;;;;;5.90;2.28;;;9.40;99.90;;;;;;4994451;28;20032;-83
2022/06/12 02:03:45;;;;;;;4.25;2.10;;;9.40;99.90;;;;;;5011422;28;20038;-83
2022/06/12 02:06:26;;;;;;;2.65;1.63;;;9.40;99.90;;;;;;4993735;28;20387;-83
2022/06/12 02:08:58;;;;;;;5.15;1.90;;;9.40;99.90;;;;;;5012176;28;20409;-83
2022/06/12 02:14:38;;;;;;;3.42;1.77;;;9.40;99.90;;;;;;5011729;28;20033;-83
2022/06/12 02:17:08;;;;;;;6.05;2.03;;;9.30;99.90;;;;;;5030391;23;20159;-83
2022/06/12 02:19:39;;;;;;;7.15;2.22;;;9.20;99.90;;;;;;4991032;28;20050;-84
2022/06/12 02:22:08;;;;;;;5.22;1.92;;;9.10;99.90;;;;;;4992540;28;20510;-83
2022/06/12 02:25:13;;;;;;;2.45;1.73;;;9.10;99.90;;;;;;4990148;28;20125;-83
2022/06/12 02:27:45;;;;;;;4.25;2.42;;;9.10;99.90;;;;;;4995478;28;20042;-83
2022/06/12 02:30:19;;;;;;;7.35;2.03;;;9.00;99.90;;;;;;4984689;28;20057;-83
2022/06/12 02:32:56;;;;;;;4.40;2.20;;;9.00;99.90;;;;;;4989205;28;20077;-83
2022/06/12 02:35:29;;;;;;;6.10;2.10;;;8.90;99.90;;;;;;4989944;28;20026;-84
2022/06/12 02:38:02;;;;;;;7.93;1.90;;;8.80;99.90;;;;;;4991169;28;20049;-83
2022/06/12 02:40:31;;;;;;;3.47;1.70;;;8.80;99.90;;;;;;4990722;28;20040;-83
2022/06/12 02:43:00;;;;;;;4.68;1.67;;;8.80;99.90;;;;;;4991009;28;20018;-83
2022/06/12 02:45:44;;;;;;;4.97;2.20;;;8.80;99.90;;;;;;4990338;28;20085;-83
2022/06/12 02:48:10;;;;;;;4.95;2.05;;;8.80;99.90;;;;;;4990264;28;20030;-84
2022/06/12 02:50:53;;;;;;;4.50;2.33;;;8.80;99.90;;;;;;4990768;28;20026;-83
2022/06/12 02:53:32;;;;;;;2.85;1.75;;;8.70;99.90;;;;;;4992334;28;20125;-83
2022/06/12 02:56:30;;;;;;;4.43;1.90;;;8.70;99.90;;;;;;4990893;28;20097;-83
2022/06/12 02:59:17;;;;;;;3.80;1.60;;;8.70;99.90;;;;;;4990673;28;20053;-83
2022/06/12 03:01:50;;;;;;;6.68;2.17;;;8.70;99.90;;;;;;4990090;28;20148;-83
2022/06/12 03:04:26;;;;;;;3.45;1.85;;;8.60;99.90;;;;;;4990003;28;20105;-83
2022/06/12 03:06:52;;;;;;;7.45;2.08;;;8.60;99.90;;;;;;4990152;28;20034;-83
2022/06/12 03:09:19;;;;;;;3.88;2.00;;;8.60;99.90;;;;;;4989313;28;20525;-84
2022/06/12 03:11:46;;;;;;;7.10;2.25;;;8.60;99.90;;;;;;4988890;28;20015;-83
2022/06/12 03:14:16;;;;;;;3.55;2.42;;;8.60;99.90;;;;;;4990595;28;20023;-83
2022/06/12 03:16:44;;;;;;;5.57;2.28;;;8.50;99.90;;;;;;5023087;22;20068;-84
2022/06/12 03:19:18;;;;;;;3.80;1.90;;;8.50;99.90;;;;;;5017860;28;20036;-84
2022/06/12 03:22:05;;;;;;;6.63;2.35;;;8.40;99.90;;;;;;5010978;28;20072;-83
2022/06/12 03:24:52;;;;;;;7.55;1.70;;;8.40;99.90;;;;;;5008430;28;20018;-83
2022/06/12 03:27:24;;;;;;;9.57;1.77;;;8.40;99.90;;;;;;5010794;28;20061;-82
2022/06/12 03:30:13;;;;;;;2.90;1.40;;;8.50;99.90;;;;;;5014573;28;20033;-82
2022/06/12 03:32:51;;;;;;;6.18;2.20;;;8.50;99.90;;;;;;5014567;28;20026;-83
2022/06/12 03:35:40;;;;;;;6.07;1.75;;;8.50;99.90;;;;;;5014784;28;20029;-83
2022/06/12 03:38:47;;;;;;;5.00;1.88;;;8.40;99.90;;;;;;5012296;28;20103;-83
2022/06/12 03:41:49;;;;;;;4.20;1.83;;;8.30;99.90;;;;;;5009634;28;20030;-83
2022/06/12 03:44:23;;;;;;;6.72;2.13;;;8.20;99.90;;;;;;5012200;28;20501;-83
2022/06/12 03:47:40;;;;;;;3.83;1.85;;;8.20;99.90;;;;;;5011974;28;20564;-83
2022/06/12 03:50:09;;;;;;;4.22;1.98;;;8.20;99.90;;;;;;5010847;28;20438;-83
2022/06/12 03:52:48;;;;;;;2.42;1.60;;;8.20;99.90;;;;;;5014742;28;20030;-83
2022/06/12 03:58:23;;;;;;;4.43;2.20;;;8.40;99.90;;;;;;5008390;28;20036;-83
2022/06/12 04:00:51;;;;;;;5.07;2.22;;;8.50;99.90;;;;;;5012193;28;20036;-83
2022/06/12 04:03:26;;;;;;;4.93;2.20;;;8.60;99.90;;;;;;5014098;28;20475;-83
2022/06/12 04:05:57;;;;;;;5.88;2.25;;;8.60;99.90;;;;;;5014272;28;20109;-83
2022/06/12 04:08:33;;;;;;;14.23;2.08;;;8.50;99.90;;;;;;5014565;28;20139;-83
2022/06/12 04:11:00;;;;;;;5.35;1.92;;;8.50;99.90;;;;;;5007181;28;20022;-83
2022/06/12 04:13:26;;;;;;;5.43;1.52;;;8.60;99.90;;;;;;5012101;28;20038;-83
2022/06/12 04:18:31;;;;;;;4.45;1.98;;;8.40;99.90;;;;;;5035818;28;20046;-84
2022/06/12 04:21:02;;;;;;;6.32;2.53;;;8.40;99.90;;;;;;5022685;28;20033;-83
2022/06/12 04:23:36;;;;;;;3.53;2.10;;;8.40;99.90;;;;;;5015637;28;20387;-83
2022/06/12 04:26:28;;;;;;;3.15;1.73;;;8.40;99.90;;;;;;5015848;28;20025;-82
2022/06/12 04:28:58;;;;;;;5.88;1.67;;;8.40;99.90;;;;;;5015632;28;20080;-82
2022/06/12 04:31:25;;;;;;;5.60;2.53;;;8.30;99.90;;;;;;5015203;28;20443;-82
2022/06/12 04:34:00;;;;;;;6.10;2.03;;;8.40;99.90;;;;;;5015877;28;20021;-82
2022/06/12 04:36:26;;;;;;;5.95;1.67;;;8.50;99.90;;;;;;5015159;28;20111;-83
2022/06/12 04:38:53;;;;;;;8.00;2.42;;;8.60;99.90;;;;;;5015054;28;20025;-82
2022/06/12 04:41:26;;;;;;;3.55;2.00;;;8.70;99.90;;;;;;5032423;28;20029;-83
2022/06/12 04:43:52;;;;;;;9.32;2.10;;;8.80;99.90;;;;;;5015718;28;20017;-83
2022/06/12 04:46:20;;;;;;;13.40;2.50;;;8.80;99.90;;;;;;5032602;28;20443;-82
2022/06/12 04:48:48;;;;;;;6.53;1.95;;;8.90;99.90;;;;;;5015370;28;20029;-82
2022/06/12 04:51:14;;;;;;;5.13;2.33;;;9.00;99.90;;;;;;5033291;28;20044;-83
2022/06/12 04:53:42;;;;;;;3.95;1.63;;;9.00;99.90;;;;;;5008332;28;20820;-82
2022/06/12 04:56:09;;;;;;;5.00;2.03;;;9.10;99.90;;;;;;5014837;28;20044;-82
2022/06/12 04:58:36;;;;;;;7.45;2.50;;;9.20;99.90;;;;;;5032912;28;20540;-83
2022/06/12 05:01:03;;;;;;;4.60;2.20;;;9.30;99.90;;;;;;5015248;28;20024;-82
2022/06/12 05:03:29;;;;;;;7.05;2.30;;;9.40;99.90;;;;;;5014676;28;20032;-83
2022/06/12 05:05:55;;;;;;;6.22;2.30;;;9.40;99.90;;;;;;5014543;28;20025;-82
2022/06/12 05:08:21;;;;;;;7.75;2.35;;;9.50;99.90;;;;;;5032586;28;20080;-83
2022/06/12 05:10:47;;;;;;;5.00;2.22;;;9.50;99.90;;;;;;5014689;28;20470;-83
2022/06/12 05:13:14;;;;;;;5.35;2.38;;;9.50;99.90;;;;;;5015805;28;20052;-83
2022/06/12 05:15:39;;;;;;;8.52;2.60;;;9.60;99.90;;;;;;5037703;28;20026;-83
2022/06/12 05:18:07;;;;;;;7.28;2.35;;;9.70;99.90;;;;;;5014208;28;20087;-84
2022/06/12 05:20:35;;;;;;;5.00;2.08;;;9.80;99.90;;;;;;5032556;28;20029;-83
2022/06/12 05:23:03;;;;;;;4.80;2.08;;;10.00;99.90;;;;;;5014683;28;20022;-83
2022/06/12 05:25:30;;;;;;;5.20;1.90;;;10.10;99.90;;;;;;5025447;28;20029;-82
2022/06/12 05:27:56;;;;;;;4.20;2.28;;;10.20;99.90;;;;;;5031717;28;20033;-83
2022/06/12 05:30:26;;;;;;;10.05;3.00;;;10.40;99.90;;;;;;5014223;28;20028;-82
2022/06/12 05:32:54;;;;;;;5.20;1.60;;;10.60;99.90;;;;;;5020535;28;20083;-83
2022/06/12 05:35:22;;;;;;;4.82;1.95;;;10.70;99.90;;;;;;5014165;28;20029;-83
2022/06/12 05:37:48;;;;;;;5.68;2.33;;;10.70;99.90;;;;;;5031743;28;20026;-83
2022/06/12 05:40:18;;;;;;;6.88;2.22;;;10.90;99.90;;;;;;5031948;28;20386;-82
2022/06/12 05:42:44;;;;;;;6.07;1.92;;;11.00;99.90;;;;;;5007608;28;20091;-84
2022/06/12 05:45:14;;;;;;;4.00;1.95;;;11.20;99.90;;;;;;5032213;28;20730;-83
2022/06/12 05:47:52;;;;;;;8.88;2.33;;;11.30;99.90;;;;;;5043664;22;20049;-82
2022/06/12 05:50:19;;;;;;;5.55;1.95;;;11.40;99.90;;;;;;5010503;28;20033;-83
2022/06/12 05:52:45;;;;;;;8.32;2.00;;;11.40;99.90;;;;;;5004238;28;20030;-83
2022/06/12 05:55:12;;;;;;;9.70;1.98;;;11.60;99.90;;;;;;5011586;28;20030;-83
2022/06/12 05:57:38;;;;;;;9.32;3.00;;;11.70;99.90;;;;;;5011401;28;20029;-83
2022/06/12 06:00:07;;;;;;;6.40;2.40;;;11.80;99.90;;;;;;5010534;28;20202;-83
2022/06/12 06:02:34;;;;;;;5.68;1.80;;;11.90;99.90;;;;;;5011259;28;20403;-83
2022/06/12 06:05:00;;;;;;;6.47;1.95;;;12.10;99.90;;;;;;5011379;28;20072;-84
2022/06/12 06:07:27;;;;;;;6.90;2.13;;;12.20;99.90;;;;;;5010314;28;20042;-82
2022/06/12 06:09:52;;;;;;;10.93;2.28;;;12.40;99.90;;;;;;5011159;28;20463;-85
2022/06/12 06:12:18;;;;;;;6.28;2.05;;;12.50;99.90;;;;;;5009577;28;20060;-83
2022/06/12 06:14:44;;;;;;;7.60;2.42;;;12.70;99.90;;;;;;5010827;28;20064;-83
2022/06/12 06:17:10;;;;;;;7.90;1.63;;;12.90;99.90;;;;;;5009333;28;20077;-83
2022/06/12 06:19:36;;;;;;;5.90;1.80;;;13.10;99.90;;;;;;5011220;28;20022;-83
2022/06/12 06:22:02;;;;;;;9.05;1.70;;;13.40;99.90;;;;;;5011301;28;20036;-83
2022/06/12 06:24:28;;;;;;;11.70;1.63;;;13.80;99.90;;;;;;5010755;28;20014;-84
2022/06/12 06:26:53;;;;;;;8.07;1.60;;;14.10;99.90;;;;;;5010802;28;20041;-83
2022/06/12 06:29:19;;;;;;;1.98;1.20;;;14.40;99.90;;;;;;5011085;28;20048;-83
2022/06/12 06:31:45;;;;;;;4.25;1.40;;;14.70;99.90;;;;;;5011221;28;20025;-84
2022/06/12 06:34:11;;;;;;;2.75;1.10;;;15.00;99.90;;;;;;5010521;28;20030;-82
2022/06/12 06:36:37;;;;;;;8.82;2.35;;;15.40;99.90;;;;;;5010971;28;20026;-82
2022/06/12 06:39:03;;;;;;;5.15;1.25;;;15.70;99.90;;;;;;5011108;28;20032;-83
2022/06/12 06:41:29;;;;;;;9.02;1.77;;;16.00;99.90;;;;;;5010781;28;20044;-83
2022/06/12 06:46:40;;;;;;;6.47;1.20;;;16.00;99.90;;;;;;5028635;23;20120;-85
2022/06/12 06:49:06;;;;;;;4.72;1.00;;;16.10;99.90;;;;;;4961673;28;20038;-86
2022/06/12 06:51:32;;;;;;;6.82;1.77;;;16.00;99.90;;;;;;4972383;28;20015;-86
2022/06/12 06:53:58;;;;;;;6.90;1.52;;;16.20;99.90;;;;;;4973205;28;20388;-87
2022/06/12 06:56:24;;;;;;;6.78;1.77;;;16.30;99.90;;;;;;4973603;28;20019;-84
2022/06/12 06:58:50;;;;;;;3.83;1.23;;;16.10;99.90;;;;;;4972547;28;20045;-86
2022/06/12 07:01:16;;;;;;;5.35;1.30;;;16.30;99.90;;;;;;4972568;28;20026;-85
2022/06/12 07:03:43;;;;;;;5.75;1.10;;;16.30;99.90;;;;;;4972170;28;20435;-86
2022/06/12 07:06:11;;;;;;;5.28;1.40;;;16.40;99.90;;;;;;4972351;28;20019;-85
2022/06/12 07:08:37;;;;;;;6.95;1.67;;;16.40;99.90;;;;;;4977643;28;20526;-87
2022/06/12 07:11:03;;;;;;;13.88;2.10;;;16.40;99.90;;;;;;4973681;28;20015;-87
2022/06/12 07:13:29;;;;;;;6.63;1.70;;;16.30;99.90;;;;;;4973275;28;20026;-88
2022/06/12 07:15:55;;;;;;;4.30;1.35;;;16.40;99.90;;;;;;4973318;28;20023;-88
2022/06/12 07:18:21;;;;;;;6.65;1.50;;;16.30;99.90;;;;;;4973246;28;20019;-87
2022/06/12 07:20:52;;;;;;;4.55;1.20;;;16.40;99.90;;;;;;4973212;28;20019;-87
2022/06/12 07:23:20;;;;;;;4.90;1.20;;;16.20;99.90;;;;;;4966404;28;20110;-87
2022/06/12 07:25:54;;;;;;;2.97;1.00;;;16.30;99.90;;;;;;4973311;28;20110;-87
2022/06/12 07:28:20;;;;;;;12.35;1.73;;;16.30;99.90;;;;;;4972806;28;20030;-87
2022/06/12 07:30:46;;;;;;;4.90;1.65;;;16.40;99.90;;;;;;4973394;28;20023;-86
2022/06/12 07:33:13;;;;;;;3.83;1.52;;;16.50;99.90;;;;;;4955065;28;20038;-85
2022/06/12 07:35:40;;;;;;;6.38;1.05;;;16.50;99.90;;;;;;4972874;28;20026;-87
2022/06/12 07:38:06;;;;;;;4.07;1.15;;;16.50;99.90;;;;;;4972201;28;20034;-86
2022/06/12 07:40:38;;;;;;;4.13;1.23;;;16.60;99.90;;;;;;4972027;28;20019;-87
2022/06/12 07:43:04;;;;;;;5.78;1.30;;;16.60;99.90;;;;;;4972440;28;20110;-86
2022/06/12 07:45:30;;;;;;;4.00;1.40;;;16.60;99.90;;;;;;4972042;28;20432;-84
2022/06/12 07:47:56;;;;;;;7.78;1.38;;;16.40;99.90;;;;;;4971556;28;20523;-85
2022/06/12 07:50:22;;;;;;;2.85;1.27;;;16.40;99.90;;;;;;4972056;28;20023;-86
2022/06/12 07:52:48;;;;;;;10.27;2.00;;;16.40;99.90;;;;;;4972496;28;20472;-91
2022/06/12 07:55:17;;;;;;;7.40;1.38;;;16.40;99.90;;;;;;4976139;28;20022;-87
2022/06/12 07:57:44;;;;;;;8.27;1.65;;;16.40;99.90;;;;;;4978418;28;20023;-84
2022/06/12 08:00:11;;;;;;;3.28;1.35;;;16.40;99.90;;;;;;4981614;28;20034;-85
2022/06/12 08:02:37;;;;;;;3.25;1.27;;;16.30;99.90;;;;;;4979915;28;20054;-82
2022/06/12 08:05:04;;;;;;;4.13;1.20;;;16.40;99.90;;;;;;4979275;28;20044;-82
2022/06/12 08:07:30;;;;;;;9.52;1.85;;;16.60;99.90;;;;;;4978532;28;20042;-83
2022/06/12 08:09:55;;;;;;;4.85;1.33;;;16.70;99.90;;;;;;4979845;28;20020;-86
2022/06/12 08:12:21;;;;;;;4.72;1.20;;;16.80;99.90;;;;;;4976253;28;20034;-85
2022/06/12 08:14:47;;;;;;;4.28;1.35;;;16.90;99.90;;;;;;4981685;28;20783;-85
2022/06/12 08:17:13;;;;;;;1.73;0.85;;;16.90;99.90;;;;;;5017068;23;20137;-82
2022/06/12 08:22:39;;;;;;;6.32;2.22;;;17.10;99.90;;;;;;4945912;29;20031;-81
2022/06/12 08:25:06;;;;;;;4.70;0.98;;;17.10;99.90;;;;;;4986368;28;20038;-81
2022/06/12 08:27:32;;;;;;;1.92;0.88;;;17.20;96.90;;;;;;4992787;28;20041;-81
2022/06/12 08:29:58;;;;;;;4.32;1.08;;;17.30;94.20;;;;;;4988744;28;20018;-88
2022/06/12 08:32:24;;;;;;;4.85;1.17;;;17.60;96.50;;;;;;4995706;28;20026;-85
2022/06/12 08:34:57;;;;;;;2.53;1.15;;;18.00;90.80;;;;;;4994314;28;20097;-86
2022/06/12 08:37:28;;;;;;;4.82;1.10;;;18.50;80.40;;;;;;4994567;28;20125;-85
2022/06/12 08:39:54;;;;;;;6.28;0.93;;;19.10;75.00;;;;;;4997397;28;20033;-84
2022/06/12 08:42:26;;;;;;;5.90;1.10;;;19.90;70.10;;;;;;4993880;28;20081;-86
2022/06/12 08:45:22;;;;;;;2.97;0.73;;;21.10;67.60;;;;;;4994026;28;20117;-83
2022/06/12 08:48:11;;;;;;;5.28;1.13;;;22.30;62.30;;;;;;4979699;28;20141;-84
2022/06/12 08:50:48;;;;;;;3.72;0.80;;;23.30;61.00;;;;;;4994246;28;20022;-85
2022/06/12 08:53:14;;;;;;;4.15;0.82;;;24.20;56.30;;;;;;4993739;28;20193;-83
2022/06/12 08:55:51;;;;;;;6.55;1.52;;;25.00;53.70;;;;;;4994271;28;20093;-83
2022/06/12 08:58:32;;;;;;;4.43;0.90;;;24.90;51.10;;;;;;4988807;28;20549;-85
2022/06/12 09:00:59;;;;;;;3.17;0.70;;;24.70;53.30;;;;;;4994118;28;20439;-83
2022/06/12 09:03:30;;;;;;;4.07;1.20;;;25.30;52.70;;;;;;4994290;28;20097;-83
2022/06/12 09:06:33;;;;;;;2.38;0.50;;;25.80;50.60;;;;;;4993314;28;20097;-82
2022/06/12 09:09:14;;;;;;;4.07;1.20;;;26.10;47.50;;;;;;4987410;28;20032;-86
2022/06/12 09:11:47;;;;;;;2.33;0.52;;;26.40;46.70;;;;;;4994002;28;20023;-87
2022/06/12 09:14:47;;;;;;;4.72;1.02;;;26.70;47.50;;;;;;4994089;28;20034;-86
2022/06/12 09:17:25;;;;;;;5.10;0.85;;;27.20;45.40;;;;;;4996600;23;20081;-82
2022/06/12 09:20:09;;;;;;;4.15;0.47;;;27.50;45.30;;;;;;4972728;28;20062;-86
2022/06/12 09:22:54;;;;;;;4.22;0.80;;;27.40;44.20;;;;;;4973203;28;20073;-86
2022/06/12 09:25:46;;;;;;;2.80;0.95;;;27.40;44.80;;;;;;4971331;28;20015;-86
2022/06/12 09:28:38;;;;;;;2.72;0.95;;;28.30;46.20;;;;;;4968428;28;20038;-87
2022/06/12 09:31:17;;;;;;;6.00;1.00;;;29.60;44.80;;;;;;4966798;28;20046;-88
2022/06/12 09:34:16;;;;;;;5.00;0.80;;;29.50;41.60;;;;;;4968693;28;20023;-87
2022/06/12 09:36:50;;;;;;;1.27;0.60;;;28.80;43.00;;;;;;4971018;28;20037;-86
2022/06/12 09:39:50;;;;;;;4.32;0.73;;;27.60;44.90;;;;;;4975385;28;20142;-90
2022/06/12 09:42:22;;;;;;;2.17;0.80;;;25.70;46.50;;;;;;4973802;28;20019;-89
2022/06/12 09:45:06;;;;;;;4.28;1.00;;;24.60;47.60;;;;;;4974195;28;20026;-92
2022/06/12 09:47:38;;;;;;;2.35;0.82;;;23.60;53.00;;;;;;4975082;28;20125;-88
2022/06/12 09:50:12;;;;;;;3.63;0.90;;;23.50;55.20;;;;;;4975223;28;20027;-91
2022/06/12 09:53:03;;;;;;;3.97;1.20;;;23.80;55.40;;;;;;4968417;28;20097;-89
2022/06/12 09:55:46;;;;;;;6.13;1.15;;;23.40;56.10;;;;;;4969674;28;20065;-89
2022/06/12 09:58:16;;;;;;;3.90;1.15;;;22.60;59.90;;;;;;4974283;28;20583;-90
2022/06/12 10:00:53;;;;;;;;;;;22.40;60.60;;;;;;4975695;28;20058;-92
2022/06/12 10:03:29;;;;;;;7.38;0.98;;;22.70;60.00;;;;;;4974023;28;19944;-91
2022/06/12 10:06:14;;;;;;;2.72;0.90;;;24.00;60.00;;;;;;4972411;28;20034;-89
2022/06/12 10:09:03;;;;;;;8.75;1.63;;;25.50;55.40;;;;;;4973836;28;20122;-89
2022/06/12 10:12:14;;;;;;;7.13;1.70;;;26.40;55.90;;;;;;4973463;28;20544;-88
2022/06/12 10:14:51;;;;;;;3.40;1.37;;;27.40;51.10;;;;;;4964419;28;20444;-87
2022/06/12 10:17:25;;;;;;;4.78;1.23;;;28.60;53.00;;;;;;5013998;23;20045;-82
2022/06/12 10:20:14;;;;;;;3.30;1.10;;;28.80;52.00;;;;;;5024392;28;20017;-85
2022/06/12 10:22:43;;;;;;;6.45;1.10;;;28.50;50.50;;;;;;4978482;28;20045;-84
2022/06/12 10:25:19;;;;;;;2.45;0.82;;;29.20;49.20;;;;;;5032042;28;20029;-82
2022/06/12 10:28:03;;;;;;;4.55;1.08;;;28.90;48.30;;;;;;5031625;28;20017;-83
2022/06/12 10:30:43;;;;;;;3.47;1.00;;;29.10;48.20;;;;;;5032103;28;20053;-84
2022/06/12 10:33:26;;;;;;;3.60;1.35;;;28.50;50.50;;;;;;5031737;28;20034;-81
2022/06/12 10:36:00;;;;;;;6.07;1.23;;;28.10;51.40;;;;;;5014283;28;20052;-83
2022/06/12 10:38:29;;;;;;;5.70;1.00;;;28.40;50.40;;;;;;5013430;28;20041;-85
2022/06/12 10:40:58;;;;;;;4.72;1.45;;;29.00;49.60;;;;;;5031947;28;20029;-84
2022/06/12 10:43:34;;;;;;;5.47;1.45;;;29.30;46.10;;;;;;5031704;28;20052;-83
2022/06/12 10:46:16;;;;;;;7.43;2.63;;;29.10;47.50;;;;;;5014648;28;20025;-82
2022/06/12 10:48:54;;;;;;;6.18;2.25;;;29.60;46.50;;;;;;5031717;28;20014;-80
2022/06/12 10:51:21;;;;;;;5.35;1.02;;;29.30;48.00;;;;;;5032026;28;21068;-79
2022/06/12 10:53:55;;;;;;;5.75;1.92;;;29.50;46.00;;;;;;5031520;28;20651;-83
2022/06/12 10:56:34;;;;;;;6.45;1.30;;;30.00;47.40;;;;;;5031578;28;20033;-81
2022/06/12 10:59:15;;;;;;;2.58;0.98;;;31.00;46.40;;;;;;5025085;28;20072;-80
2022/06/12 11:02:08;;;;;;;4.60;1.23;;;30.80;43.60;;;;;;5025037;28;20045;-80
2022/06/12 11:05:00;;;;;;;9.80;2.13;;;29.80;45.90;;;;;;5026186;28;20034;-82
2022/06/12 11:07:43;;;;;;;6.15;1.40;;;29.80;44.90;;;;;;5027145;28;20104;-81
2022/06/12 11:10:44;;;;;;;6.30;0.90;;;30.20;46.10;;;;;;5031667;28;20025;-80
2022/06/12 11:13:46;;;;;;;4.50;0.95;;;30.20;43.70;;;;;;5013803;28;20096;-82
2022/06/12 11:19:07;;;;;;;6.40;1.42;;;30.70;43.10;;;;;;5021979;28;20045;-89
2022/06/12 11:22:00;;;;;;;3.47;1.63;;;30.50;44.80;;;;;;5032145;28;20022;-92
2022/06/12 11:24:45;;;;;;;5.10;1.55;;;30.40;46.30;;;;;;5019671;28;20014;-89
2022/06/12 11:27:20;;;;;;;5.82;1.50;;;30.80;43.30;;;;;;5009365;28;20033;-92
2022/06/12 11:30:07;;;;;;;4.82;1.15;;;29.70;43.50;;;;;;5014243;28;20504;-90
2022/06/12 11:32:59;;;;;;;5.07;1.05;;;30.20;45.70;;;;;;5015632;28;20378;-96
2022/06/12 11:35:51;;;;;;;4.82;1.48;;;31.30;43.60;;;;;;5020729;28;20049;-90
2022/06/12 11:38:36;;;;;;;5.55;1.02;;;30.30;43.00;;;;;;5005228;28;20030;-89
2022/06/12 11:41:30;;;;;;;5.32;1.00;;;28.70;45.90;;;;;;5010722;28;20438;-94
2022/06/12 11:44:30;;;;;;;3.65;1.15;;;27.80;48.40;;;;;;5016261;28;20022;-93
2022/06/12 11:47:13;;;;;;;4.05;1.38;;;27.40;50.70;;;;;;5016351;28;20021;-91
2022/06/12 11:50:01;;;;;;;3.75;0.98;;;27.20;51.00;;;;;;5017316;28;20045;-93
2022/06/12 11:52:42;;;;;;;8.93;1.20;;;27.30;50.00;;;;;;5019603;28;20032;-92
2022/06/12 11:55:17;;;;;;;4.78;1.48;;;27.00;50.20;;;;;;5020912;28;20378;-90
2022/06/12 11:58:17;;;;;;;4.45;1.05;;;27.00;51.10;;;;;;5020093;28;20065;-89
2022/06/12 12:00:56;;;;;;;6.75;1.67;;;26.50;49.90;;;;;;5021471;28;20056;-95
2022/06/12 12:03:53;;;;;;;4.72;1.30;;;27.10;51.70;;;;;;5019002;28;20525;-89
2022/06/12 12:07:08;;;;;;;6.68;1.50;;;28.00;47.30;;;;;;5014045;28;20021;-88
2022/06/12 12:10:24;;;;;;;2.72;1.00;;;29.50;47.30;;;;;;4920139;29;20028;-89
2022/06/12 12:13:08;;;;;;;4.30;1.13;;;29.40;46.60;;;;;;4973757;28;20052;-88
2022/06/12 12:15:43;;;;;;;6.10;1.40;;;29.90;45.70;;;;;;5017171;28;20025;-92
2022/06/12 12:18:32;;;;;;;5.30;1.52;;;30.20;47.30;;;;;;5025649;23;20124;-81
2022/06/12 12:21:00;;;;;;;6.53;1.58;;;29.80;43.60;;;;;;5008337;28;20015;-85
2022/06/12 12:23:35;;;;;;;6.97;1.60;;;30.10;43.10;;;;;;5014057;28;20026;-85
2022/06/12 12:26:07;;;;;;;3.90;0.73;;;29.70;43.10;;;;;;4996155;28;20099;-84
2022/06/12 12:28:46;;;;;;;6.72;1.13;;;31.00;44.80;;;;;;5013804;28;20101;-82
2022/06/12 12:31:15;;;;;;;3.55;1.10;;;31.50;42.90;;;;;;5013877;28;20080;-82
2022/06/12 12:33:44;;;;;;;2.90;1.30;;;31.10;43.30;;;;;;5013900;28;20022;-83
2022/06/12 12:41:56;;;;;;;3.60;0.90;;;31.20;43.60;;;;;;5007954;28;20025;-85
2022/06/12 12:44:35;;;;;;;3.95;1.20;;;30.60;43.80;;;;;;5006936;28;20353;-82
2022/06/12 12:47:02;;;;;;;4.07;1.20;;;30.50;42.00;;;;;;5013976;28;20033;-84
2022/06/12 12:49:33;;;;;;;7.05;1.50;;;30.70;43.70;;;;;;5015489;28;20107;-86
2022/06/12 12:52:06;;;;;;;5.22;1.00;;;31.80;43.60;;;;;;5013467;28;20653;-83
2022/06/12 12:54:49;;;;;;;7.20;1.73;;;31.70;41.50;;;;;;4996403;28;20030;-83
2022/06/12 12:57:19;;;;;;;4.38;1.10;;;31.40;42.20;;;;;;4990466;28;20038;-84
2022/06/12 12:59:52;;;;;;;3.45;1.33;;;31.30;42.70;;;;;;5013113;28;20029;-85
2022/06/12 13:02:30;;;;;;;3.53;0.90;;;31.70;43.50;;;;;;5013116;28;20517;-82
2022/06/12 13:05:00;;;;;;;3.22;1.23;;;31.70;40.60;;;;;;5013178;28;20517;-83
2022/06/12 13:07:39;;;;;;;7.32;1.45;;;31.30;43.30;;;;;;5012934;28;20749;-85
2022/06/12 13:10:30;;;;;;;3.78;1.08;;;31.80;42.90;;;;;;5012934;28;20520;-83
2022/06/12 13:13:07;;;;;;;2.90;1.00;;;31.60;41.80;;;;;;4995057;28;20113;-87
2022/06/12 13:19:33;;;;;;;1.92;0.95;;;32.50;44.30;;;;;;5017798;28;20136;-87
2022/06/12 13:22:22;;;;;;;5.20;1.48;;;32.60;40.20;;;;;;5009710;28;20052;-90
2022/06/12 13:24:58;;;;;;;2.65;1.02;;;32.00;40.20;;;;;;4996786;28;20034;-93
2022/06/12 13:27:31;;;;;;;6.28;1.25;;;31.70;41.90;;;;;;5013028;28;20522;-88
2022/06/12 13:29:58;;;;;;;4.53;0.88;;;32.00;41.80;;;;;;4984846;28;20029;-90
2022/06/12 13:32:32;;;;;;;4.95;1.13;;;31.60;41.60;;;;;;4996137;28;20375;-87
2022/06/12 13:35:01;;;;;;;5.25;1.42;;;31.40;41.10;;;;;;4996146;28;20120;-90
2022/06/12 13:37:34;;;;;;;6.82;1.30;;;31.50;41.40;;;;;;4993499;28;20031;-88
2022/06/12 13:40:26;;;;;;;3.08;0.95;;;30.80;42.10;;;;;;4995790;28;20022;-92
2022/06/12 13:43:02;;;;;;;;;;;30.90;42.90;;;;;;4984716;28;20030;-88
2022/06/12 13:45:27;;;;;;;6.78;1.05;;;31.00;42.30;;;;;;4996226;28;20274;-89
2022/06/12 13:47:53;;;;;;;5.55;1.38;;;31.30;43.20;;;;;;5016871;28;20021;-90
2022/06/12 13:50:33;;;;;;;6.32;1.25;;;31.70;41.50;;;;;;4994896;28;20041;-88
2022/06/12 13:53:02;;;;;;;4.25;1.10;;;32.50;41.40;;;;;;5011385;28;20018;-86
2022/06/12 13:55:55;;;;;;;2.42;1.05;;;31.80;41.10;;;;;;5008764;28;20497;-92
2022/06/12 13:58:23;;;;;;;3.35;0.85;;;31.70;42.60;;;;;;5008553;28;20038;-89
2022/06/12 14:00:57;;;;;;;3.58;1.00;;;32.60;40.40;;;;;;5012910;28;20018;-88